createdAt,value
2022-12-01T00:03:02.780Z,0.72
2022-12-01T00:08:05.939Z,0.74
2022-12-01T00:13:08.712Z,0.75
2022-12-01T00:18:11.476Z,0.74
2022-12-01T00:23:14.194Z,0.73
2022-12-01T00:28:16.937Z,0.69
2022-12-01T00:33:19.682Z,0.64
2022-12-01T00:38:22.463Z,0.66
2022-12-01T00:43:25.268Z,0.67
2022-12-01T00:48:28.257Z,0.67
2022-12-01T00:53:31.551Z,0.63
2022-12-01T00:58:34.167Z,0.59
2022-12-01T01:03:36.913Z,0.53
2022-12-01T01:08:40.737Z,0.53
2022-12-01T01:13:43.642Z,0.54
2022-12-01T01:18:47.387Z,0.50
2022-12-01T01:23:51.591Z,0.46
2022-12-01T01:28:57.231Z,0.46
2022-12-01T01:34:00.040Z,0.50
2022-12-01T01:39:03.067Z,0.53
2022-12-01T01:44:44.356Z,0.52
2022-12-01T01:49:47.843Z,0.47
2022-12-01T01:54:54.798Z,0.47
2022-12-01T02:00:07.525Z,0.52
2022-12-01T02:05:17.349Z,0.57
2022-12-01T02:10:22.906Z,0.56
2022-12-01T02:15:43.813Z,0.53
2022-12-01T02:21:09.088Z,0.51
2022-12-01T02:26:39.750Z,0.48
2022-12-01T02:31:57.343Z,0.43
2022-12-01T02:37:08.663Z,0.45
2022-12-01T02:42:40.268Z,0.49
2022-12-01T02:47:46.013Z,0.51
2022-12-01T02:52:49.635Z,0.52
2022-12-01T02:57:52.374Z,0.48
2022-12-01T03:03:20.138Z,0.43
2022-12-01T03:08:29.363Z,0.38
2022-12-01T03:13:46.196Z,0.34
2022-12-01T03:19:07.199Z,0.38
2022-12-01T03:24:24.260Z,0.42
2022-12-01T03:29:38.733Z,0.43
2022-12-01T03:35:01.434Z,0.43
2022-12-01T03:40:10.293Z,0.40
2022-12-01T03:45:20.133Z,0.35
2022-12-01T03:50:32.342Z,0.33
2022-12-01T03:55:41.601Z,0.35
2022-12-01T04:00:49.911Z,0.35
2022-12-01T04:05:52.909Z,0.34
2022-12-01T04:10:55.626Z,0.30
2022-12-01T04:15:58.333Z,0.24
2022-12-01T04:21:01.058Z,0.26
2022-12-01T04:26:05.072Z,0.27
2022-12-01T04:31:07.909Z,0.26
2022-12-01T04:36:10.973Z,0.28
2022-12-01T04:41:14.512Z,0.25
2022-12-01T04:46:17.297Z,0.23
2022-12-01T04:51:21.383Z,0.24
2022-12-01T04:56:24.235Z,0.28
2022-12-01T05:01:27.661Z,0.34
2022-12-01T05:06:30.473Z,0.37
2022-12-01T05:11:33.615Z,0.36
2022-12-01T05:16:36.528Z,0.32
2022-12-01T05:21:40.527Z,0.27
2022-12-01T05:26:44.121Z,0.29
2022-12-01T05:31:47.259Z,0.33
2022-12-01T05:36:50.053Z,0.36
2022-12-01T05:41:53.889Z,0.36
2022-12-01T05:46:56.630Z,0.35
2022-12-01T05:51:59.368Z,0.35
2022-12-01T05:57:02.169Z,0.37
2022-12-01T06:02:05.020Z,0.43
2022-12-01T06:07:07.771Z,0.47
2022-12-01T06:12:10.516Z,0.48
2022-12-01T06:17:13.254Z,0.49
2022-12-01T06:22:16.088Z,0.48
2022-12-01T06:27:18.828Z,0.49
2022-12-01T06:32:21.701Z,0.52
2022-12-01T06:37:24.513Z,0.57
2022-12-01T06:42:29.878Z,0.64
2022-12-01T06:47:32.642Z,0.65
2022-12-01T06:52:36.615Z,0.60
2022-12-01T06:57:39.580Z,0.58
2022-12-01T07:02:42.597Z,0.61
2022-12-01T07:07:45.599Z,0.73
2022-12-01T07:12:48.410Z,0.75
2022-12-01T07:17:51.170Z,0.73
2022-12-01T07:22:54.471Z,0.82
2022-12-01T07:27:57.097Z,0.87
2022-12-01T07:33:01.314Z,0.94
2022-12-01T07:38:05.117Z,0.95
2022-12-01T07:43:07.993Z,0.92
2022-12-01T07:48:10.889Z,0.90
2022-12-01T07:53:13.679Z,0.92
2022-12-01T07:58:17.277Z,0.96
2022-12-01T08:03:20.683Z,1.01
2022-12-01T08:08:23.560Z,1.00
2022-12-01T08:13:26.446Z,0.99
2022-12-01T08:18:29.178Z,1.03
2022-12-01T08:23:32.391Z,1.12
2022-12-01T08:28:36.332Z,1.22
2022-12-01T08:33:39.163Z,1.35
2022-12-01T08:38:46.070Z,1.43
2022-12-01T08:43:57.788Z,1.46
2022-12-01T08:49:02.726Z,1.52
2022-12-01T08:54:05.576Z,1.53
2022-12-01T08:59:09.760Z,1.50
2022-12-01T09:04:15.935Z,1.50
2022-12-01T09:09:22.627Z,1.57
2022-12-01T09:14:25.380Z,1.61
2022-12-01T09:19:28.825Z,1.58
2022-12-01T09:24:31.833Z,1.58
2022-12-01T09:29:35.045Z,1.58
2022-12-01T09:34:37.796Z,1.58
2022-12-01T09:39:40.644Z,1.66
2022-12-01T09:44:49.926Z,1.77
2022-12-01T09:50:17.001Z,1.86
2022-12-01T09:55:23.460Z,2.00
2022-12-01T10:00:30.465Z,2.15
2022-12-01T10:06:24.563Z,2.26
2022-12-01T10:11:26.000Z,2.35
2022-12-01T10:16:46.585Z,2.46
2022-12-01T10:21:55.484Z,2.51
2022-12-01T10:27:31.748Z,2.56
2022-12-01T10:32:55.372Z,2.44
2022-12-01T10:38:03.175Z,2.40
2022-12-01T10:43:13.144Z,2.46
2022-12-01T10:48:22.344Z,2.53
2022-12-01T10:53:33.792Z,2.54
2022-12-01T10:58:58.401Z,2.54
2022-12-01T11:04:01.875Z,2.60
2022-12-01T11:09:20.260Z,2.62
2022-12-01T11:14:53.412Z,2.56
2022-12-01T11:19:56.698Z,2.48
2022-12-01T11:25:00.952Z,2.43
2022-12-01T11:30:20.242Z,2.38
2022-12-01T11:35:26.163Z,2.30
2022-12-01T11:40:36.440Z,2.22
2022-12-01T11:45:40.540Z,2.16
2022-12-01T11:50:59.802Z,2.11
2022-12-01T11:56:30.191Z,2.07
2022-12-01T12:01:57.022Z,2.04
2022-12-01T12:07:21.216Z,2.05
2022-12-01T12:12:49.710Z,2.07
2022-12-01T12:18:14.167Z,1.99
2022-12-01T12:23:31.194Z,1.93
2022-12-01T12:28:36.986Z,1.94
2022-12-01T12:33:55.803Z,1.92
2022-12-01T12:39:03.400Z,1.87
2022-12-01T12:44:31.058Z,1.90
2022-12-01T12:49:39.667Z,1.87
2022-12-01T12:54:48.558Z,1.85
2022-12-01T12:59:59.650Z,1.83
2022-12-01T13:05:38.922Z,1.79
2022-12-01T13:10:48.529Z,1.68
2022-12-01T13:15:54.741Z,1.64
2022-12-01T13:20:58.384Z,1.61
2022-12-01T13:26:05.449Z,1.56
2022-12-01T13:31:11.770Z,1.54
2022-12-01T13:36:45.188Z,1.53
2022-12-01T13:41:39.653Z,1.49
2022-12-01T13:46:42.837Z,1.51
2022-12-01T13:52:22.847Z,1.47
2022-12-01T13:57:28.434Z,1.42
2022-12-01T14:02:33.696Z,1.41
2022-12-01T14:07:38.352Z,1.44
2022-12-01T14:12:45.595Z,1.41
2022-12-01T14:17:59.379Z,1.37
2022-12-01T14:23:04.175Z,1.35
2022-12-01T14:28:15.943Z,1.30
2022-12-01T14:33:57.907Z,1.26
2022-12-01T14:39:00.609Z,1.26
2022-12-01T14:44:12.447Z,1.26
2022-12-01T14:49:40.819Z,1.26
2022-12-01T14:54:46.966Z,1.21
2022-12-01T15:00:04.845Z,1.17
2022-12-01T15:05:18.750Z,1.13
2022-12-01T15:10:29.237Z,1.14
2022-12-01T15:15:31.994Z,1.13
2022-12-01T15:20:41.321Z,1.12
2022-12-01T15:25:47.858Z,1.13
2022-12-01T15:30:53.622Z,1.14
2022-12-01T15:35:57.754Z,1.10
2022-12-01T15:46:30.989Z,1.06
2022-12-01T15:51:42.282Z,1.03
2022-12-01T15:56:51.916Z,0.96
2022-12-01T16:01:54.831Z,0.92
2022-12-01T16:07:05.751Z,0.88
2022-12-01T16:12:14.611Z,0.85
2022-12-01T16:17:17.565Z,0.83
2022-12-01T16:22:22.391Z,0.78
2022-12-01T16:27:28.254Z,0.76
2022-12-01T16:32:35.538Z,0.75
2022-12-01T16:37:38.251Z,0.68
2022-12-01T16:42:41.037Z,0.59
2022-12-01T16:47:45.741Z,0.57
2022-12-01T16:52:52.025Z,0.52
2022-12-01T16:57:55.507Z,0.40
2022-12-01T17:02:58.658Z,0.27
2022-12-01T17:08:02.001Z,0.20
2022-12-01T17:13:04.862Z,0.21
2022-12-01T17:18:07.588Z,0.22
2022-12-01T17:23:10.648Z,0.18
2022-12-01T17:28:13.381Z,0.18
2022-12-01T17:33:16.216Z,0.22
2022-12-01T17:38:18.968Z,0.24
2022-12-01T17:43:23.258Z,0.20
2022-12-01T17:48:26.236Z,0.18
2022-12-01T17:53:29.012Z,0.21
2022-12-01T17:58:43.408Z,0.20
2022-12-01T18:03:48.646Z,0.16
2022-12-01T18:08:52.067Z,0.13
2022-12-01T18:13:54.853Z,0.13
2022-12-01T18:18:59.198Z,0.11
2022-12-01T18:24:04.166Z,0.07
2022-12-01T18:29:11.976Z,0.09
2022-12-01T18:34:14.760Z,0.08
2022-12-01T18:39:18.094Z,0.05
2022-12-01T18:44:20.746Z,-0.00
2022-12-01T18:49:23.909Z,-0.04
2022-12-01T18:54:27.248Z,-0.08
2022-12-01T18:59:30.576Z,-0.13
2022-12-01T19:04:33.650Z,-0.14
2022-12-01T19:09:36.441Z,-0.14
2022-12-01T19:14:39.167Z,-0.15
2022-12-01T19:19:41.886Z,-0.23
2022-12-01T19:24:49.832Z,-0.29
2022-12-01T19:29:54.081Z,-0.32
2022-12-01T19:34:57.260Z,-0.37
2022-12-01T19:39:59.942Z,-0.43
2022-12-01T19:45:02.719Z,-0.47
2022-12-01T19:50:06.293Z,-0.53
2022-12-01T19:55:09.353Z,-0.54
2022-12-01T20:00:12.951Z,-0.52
2022-12-01T20:05:15.910Z,-0.50
2022-12-01T20:10:20.443Z,-0.53
2022-12-01T20:15:23.219Z,-0.55
2022-12-01T20:20:26.044Z,-0.61
2022-12-01T20:25:28.848Z,-0.62
2022-12-01T20:30:31.646Z,-0.57
2022-12-01T20:35:34.553Z,-0.50
2022-12-01T20:40:37.282Z,-0.44
2022-12-01T20:45:40.171Z,-0.45
2022-12-01T20:50:43.046Z,-0.51
2022-12-01T20:55:45.955Z,-0.59
2022-12-01T21:00:49.251Z,-0.64
2022-12-01T21:05:51.929Z,-0.65
2022-12-01T21:10:54.711Z,-0.68
2022-12-01T21:16:03.602Z,-0.74
2022-12-01T21:21:30.317Z,-0.84
2022-12-01T21:26:33.210Z,-0.87
2022-12-01T21:31:36.982Z,-0.90
2022-12-01T21:36:39.731Z,-0.95
2022-12-01T21:41:42.523Z,-1.00
2022-12-01T21:46:46.406Z,-1.06
2022-12-01T21:51:52.105Z,-1.06
2022-12-01T21:56:58.068Z,-1.04
2022-12-01T22:02:08.013Z,-1.08
2022-12-01T22:07:15.035Z,-1.15
2022-12-01T22:12:28.747Z,-1.17
2022-12-01T22:17:31.496Z,-1.13
2022-12-01T22:22:36.621Z,-1.09
2022-12-01T22:27:39.740Z,-1.10
2022-12-01T22:33:03.778Z,-1.15
2022-12-01T22:38:06.484Z,-1.19
2022-12-01T22:43:18.267Z,-1.20
2022-12-01T22:48:27.268Z,-1.24
2022-12-01T22:53:31.246Z,-1.32
2022-12-01T22:58:41.125Z,-1.41
2022-12-01T23:03:43.940Z,-1.49
2022-12-01T23:08:46.697Z,-1.54
2022-12-01T23:13:49.411Z,-1.56
2022-12-01T23:18:52.400Z,-1.53
2022-12-01T23:23:55.260Z,-1.51
2022-12-01T23:28:59.322Z,-1.54
2022-12-01T23:34:02.063Z,-1.63
2022-12-01T23:39:11.813Z,-1.72
2022-12-01T23:44:24.122Z,-1.80
2022-12-01T23:49:33.259Z,-1.84
2022-12-01T23:54:38.327Z,-1.88
2022-12-01T23:59:41.111Z,-1.94
